createdAt,value
2022-09-04T00:02:15.682Z,4.30
2022-09-04T00:05:02.720Z,3.70
2022-09-04T00:07:49.709Z,3.80
2022-09-04T00:10:18.359Z,4.00
2022-09-04T00:12:56.351Z,5.10
2022-09-04T00:15:35.600Z,5.00
2022-09-04T00:18:22.426Z,5.40
2022-09-04T00:20:54.090Z,5.70
2022-09-04T00:23:36.272Z,5.10
2022-09-04T00:26:32.197Z,5.00
2022-09-04T00:29:06.948Z,4.30
2022-09-04T00:31:45.133Z,4.60
2022-09-04T00:34:44.948Z,4.20
2022-09-04T00:37:18.667Z,4.50
2022-09-04T00:39:58.039Z,4.30
2022-09-04T00:42:47.466Z,4.20
2022-09-04T00:45:22.582Z,4.00
2022-09-04T00:48:28.814Z,4.00
2022-09-04T00:51:16.367Z,4.10
2022-09-04T00:53:48.134Z,4.60
2022-09-04T00:56:44.286Z,4.70
2022-09-04T00:59:16.570Z,4.70
2022-09-04T01:01:45.553Z,4.60
2022-09-04T01:04:23.559Z,4.70
2022-09-04T01:07:31.772Z,4.70
2022-09-04T01:10:12.129Z,4.10
2022-09-04T01:12:57.621Z,4.50
2022-09-04T01:15:49.851Z,4.80
2022-09-04T01:18:25.208Z,5.10
2022-09-04T01:21:06.781Z,4.60
2022-09-04T01:24:09.170Z,4.60
2022-09-04T01:26:56.306Z,4.40
2022-09-04T01:29:50.155Z,4.50
2022-09-04T01:32:41.205Z,4.40
2022-09-04T01:35:20.239Z,4.60
2022-09-04T01:38:06.391Z,4.20
2022-09-04T01:40:47.576Z,4.50
2022-09-04T01:43:21.438Z,4.10
2022-09-04T01:48:55.829Z,4.70
2022-09-04T01:51:45.397Z,4.40
2022-09-04T01:54:53.202Z,4.40
2022-09-04T01:57:27.724Z,3.80
2022-09-04T02:00:02.247Z,4.20
2022-09-04T02:02:53.674Z,4.20
2022-09-04T02:05:54.307Z,4.10
2022-09-04T02:08:44.185Z,4.20
2022-09-04T02:11:15.912Z,4.30
2022-09-04T02:14:04.907Z,4.00
2022-09-04T02:16:39.565Z,4.10
2022-09-04T02:19:37.201Z,3.90
2022-09-04T02:22:33.840Z,4.80
2022-09-04T02:25:11.538Z,4.40
2022-09-04T02:27:45.868Z,4.70
2022-09-04T02:30:19.481Z,4.50
2022-09-04T02:32:54.112Z,4.40
2022-09-04T02:35:37.934Z,4.10
2022-09-04T02:38:30.372Z,4.70
2022-09-04T02:41:20.051Z,4.70
2022-09-04T02:43:58.001Z,4.10
2022-09-04T02:46:44.913Z,4.20
2022-09-04T02:49:32.291Z,4.40
2022-09-04T02:52:19.717Z,4.40
2022-09-04T02:55:19.121Z,3.90
2022-09-04T02:57:59.895Z,3.80
2022-09-04T03:00:49.100Z,4.40
2022-09-04T03:03:20.410Z,4.10
2022-09-04T03:06:02.434Z,3.90
2022-09-04T03:08:39.902Z,4.10
2022-09-04T03:11:38.016Z,3.90
2022-09-04T03:14:18.646Z,3.90
2022-09-04T03:17:13.508Z,3.90
2022-09-04T03:19:45.284Z,3.70
2022-09-04T03:22:27.720Z,3.70
2022-09-04T03:25:24.359Z,4.00
2022-09-04T03:27:53.147Z,3.90
2022-09-04T03:30:22.139Z,4.00
2022-09-04T03:33:06.083Z,3.90
2022-09-04T03:35:54.025Z,4.30
2022-09-04T03:38:40.733Z,4.10
2022-09-04T03:41:30.820Z,4.80
2022-09-04T03:44:23.717Z,4.10
2022-09-04T03:47:05.980Z,4.50
2022-09-04T03:49:39.039Z,4.20
2022-09-04T03:52:48.872Z,4.30
2022-09-04T03:55:45.258Z,4.50
2022-09-04T03:58:17.319Z,4.80
2022-09-04T04:01:01.619Z,4.70
2022-09-04T04:03:56.179Z,4.50
2022-09-04T04:06:46.361Z,4.80
2022-09-04T04:09:38.391Z,4.50
2022-09-04T04:12:26.125Z,4.80
2022-09-04T04:15:13.449Z,5.00
2022-09-04T04:18:12.445Z,4.30
2022-09-04T04:21:09.193Z,4.70
2022-09-04T04:24:15.156Z,4.80
2022-09-04T04:27:04.728Z,4.70
2022-09-04T04:30:04.749Z,4.10
2022-09-04T04:33:04.388Z,4.40
2022-09-04T04:35:52.842Z,4.10
2022-09-04T04:38:48.160Z,4.60
2022-09-04T04:41:21.913Z,4.60
2022-09-04T04:44:15.919Z,4.60
2022-09-04T04:47:07.874Z,4.20
2022-09-04T04:50:03.765Z,4.50
2022-09-04T04:52:49.576Z,4.40
2022-09-04T04:55:39.035Z,4.50
2022-09-04T04:58:11.715Z,4.60
2022-09-04T05:01:13.903Z,4.60
2022-09-04T05:04:11.646Z,5.30
2022-09-04T05:07:15.455Z,6.20
2022-09-04T05:09:46.908Z,5.90
2022-09-04T05:12:30.751Z,4.80
2022-09-04T05:15:04.351Z,4.60
2022-09-04T05:17:45.735Z,5.30
2022-09-04T05:20:32.855Z,4.60
2022-09-04T05:23:38.611Z,4.60
2022-09-04T05:26:48.053Z,4.70
2022-09-04T05:29:32.659Z,4.30
2022-09-04T05:32:23.362Z,4.70
2022-09-04T05:34:52.102Z,4.50
2022-09-04T05:37:35.638Z,4.70
2022-09-04T05:40:23.884Z,4.70
2022-09-04T05:42:55.574Z,4.20
2022-09-04T05:45:53.517Z,4.40
2022-09-04T05:48:31.150Z,4.10
2022-09-04T05:51:07.990Z,4.50
2022-09-04T05:54:14.262Z,4.20
2022-09-04T05:57:03.323Z,3.50
2022-09-04T05:59:56.688Z,4.70
2022-09-04T06:02:58.063Z,3.80
2022-09-04T06:05:45.772Z,3.90
2022-09-04T06:08:47.634Z,4.00
2022-09-04T06:11:37.730Z,3.40
2022-09-04T06:14:30.986Z,3.70
2022-09-04T06:17:17.696Z,3.80
2022-09-04T06:20:11.786Z,3.70
2022-09-04T06:22:43.228Z,3.70
2022-09-04T06:25:55.560Z,4.20
2022-09-04T06:28:56.829Z,4.00
2022-09-04T06:31:25.509Z,4.10
2022-09-04T06:34:09.731Z,3.80
2022-09-04T06:36:39.335Z,4.40
2022-09-04T06:39:38.999Z,4.40
2022-09-04T06:42:22.068Z,4.30
2022-09-04T06:45:30.501Z,4.00
2022-09-04T06:48:02.850Z,4.30
2022-09-04T06:50:37.083Z,4.40
2022-09-04T06:53:35.468Z,4.20
2022-09-04T06:56:26.165Z,4.70
2022-09-04T06:59:31.819Z,4.00
2022-09-04T07:02:20.955Z,4.00
2022-09-04T07:05:06.568Z,4.20
2022-09-04T07:07:39.359Z,4.10
2022-09-04T07:10:25.034Z,3.80
2022-09-04T07:13:08.789Z,4.20
2022-09-04T07:15:48.921Z,4.20
2022-09-04T07:18:31.137Z,4.10
2022-09-04T07:21:17.019Z,3.80
2022-09-04T07:24:12.695Z,3.80
2022-09-04T07:27:16.099Z,3.80
2022-09-04T07:29:56.613Z,3.90
2022-09-04T07:32:52.543Z,3.50
2022-09-04T07:35:44.158Z,4.00
2022-09-04T07:38:38.135Z,3.60
2022-09-04T07:41:38.313Z,3.60
2022-09-04T07:44:14.729Z,3.50
2022-09-04T07:46:47.339Z,3.40
2022-09-04T07:49:27.977Z,3.80
2022-09-04T07:52:27.268Z,3.60
2022-09-04T07:55:11.027Z,3.00
2022-09-04T07:57:42.575Z,3.50
2022-09-04T08:00:18.435Z,3.10
2022-09-04T08:02:57.231Z,3.50
2022-09-04T08:05:32.350Z,3.60
2022-09-04T08:08:04.686Z,3.70
2022-09-04T08:10:54.973Z,4.40
2022-09-04T08:13:49.811Z,3.50
2022-09-04T08:16:42.936Z,3.40
2022-09-04T08:19:41.177Z,3.80
2022-09-04T08:22:13.790Z,3.50
2022-09-04T08:25:17.407Z,3.90
2022-09-04T08:27:59.663Z,3.40
2022-09-04T08:30:38.852Z,3.90
2022-09-04T08:33:13.617Z,3.30
2022-09-04T08:36:02.256Z,3.80
2022-09-04T08:38:55.870Z,3.70
2022-09-04T08:41:43.076Z,3.20
2022-09-04T08:44:14.864Z,3.40
2022-09-04T08:46:49.390Z,3.20
2022-09-04T08:50:02.643Z,3.50
2022-09-04T08:53:12.283Z,3.80
2022-09-04T08:55:56.433Z,3.20
2022-09-04T09:01:46.170Z,3.30
2022-09-04T09:04:36.542Z,3.10
2022-09-04T09:07:42.777Z,3.30
2022-09-04T09:10:29.877Z,3.20
2022-09-04T09:13:16.750Z,3.30
2022-09-04T09:16:17.553Z,3.30
2022-09-04T09:19:17.021Z,4.10
2022-09-04T09:22:07.216Z,3.30
2022-09-04T09:24:57.584Z,3.40
2022-09-04T09:28:03.498Z,3.30
2022-09-04T09:31:01.119Z,3.80
2022-09-04T09:34:22.608Z,3.00
2022-09-04T09:37:23.395Z,2.90
2022-09-04T09:40:21.860Z,2.70
2022-09-04T09:43:18.425Z,3.10
2022-09-04T09:46:22.323Z,2.80
2022-09-04T09:49:17.106Z,3.00
2022-09-04T09:52:04.756Z,3.00
2022-09-04T09:55:00.409Z,3.20
2022-09-04T09:57:50.415Z,3.60
2022-09-04T10:00:24.229Z,3.20
2022-09-04T10:03:11.213Z,3.20
2022-09-04T10:05:58.255Z,3.10
2022-09-04T10:08:53.467Z,3.20
2022-09-04T10:11:37.233Z,3.50
2022-09-04T10:14:11.758Z,3.40
2022-09-04T10:16:46.418Z,3.60
2022-09-04T10:19:38.558Z,3.70
2022-09-04T10:22:31.968Z,3.00
2022-09-04T10:25:43.118Z,3.10
2022-09-04T10:28:30.411Z,3.60
2022-09-04T10:31:13.729Z,3.20
2022-09-04T10:34:04.018Z,3.70
2022-09-04T10:36:46.511Z,3.30
2022-09-04T10:40:12.246Z,3.40
2022-09-04T10:43:10.619Z,3.90
2022-09-04T10:45:41.967Z,3.40
2022-09-04T10:48:38.275Z,3.60
2022-09-04T10:51:51.060Z,3.30
2022-09-04T10:54:22.203Z,3.70
2022-09-04T10:57:29.742Z,3.70
2022-09-04T11:00:16.183Z,4.40
2022-09-04T11:02:49.696Z,3.50
2022-09-04T11:05:36.887Z,3.40
2022-09-04T11:08:36.660Z,3.50
2022-09-04T11:11:08.540Z,3.00
2022-09-04T11:14:06.664Z,3.50
2022-09-04T11:16:47.281Z,3.80
2022-09-04T11:19:21.301Z,3.60
2022-09-04T11:22:17.385Z,3.50
2022-09-04T11:25:19.434Z,3.60
2022-09-04T11:27:52.386Z,3.50
2022-09-04T11:30:30.172Z,3.50
2022-09-04T11:33:43.251Z,2.90
2022-09-04T11:36:36.718Z,3.20
2022-09-04T11:39:14.500Z,3.30
2022-09-04T11:41:57.922Z,3.50
2022-09-04T11:44:35.836Z,2.90
2022-09-04T11:47:23.678Z,3.00
2022-09-04T11:50:20.044Z,2.80
2022-09-04T11:52:58.293Z,3.20
2022-09-04T11:56:02.197Z,3.00
2022-09-04T11:58:42.116Z,3.20
2022-09-04T12:01:52.072Z,2.90
2022-09-04T12:04:24.075Z,3.00
2022-09-04T12:06:55.651Z,3.30
2022-09-04T12:09:35.369Z,2.90
2022-09-04T12:12:18.304Z,3.40
2022-09-04T12:14:52.873Z,3.00
2022-09-04T12:17:50.581Z,3.10
2022-09-04T12:20:37.363Z,2.60
2022-09-04T12:23:32.196Z,2.90
2022-09-04T12:26:01.675Z,3.10
2022-09-04T12:29:07.767Z,2.60
2022-09-04T12:31:57.411Z,2.80
2022-09-04T12:35:03.569Z,3.00
2022-09-04T12:37:43.820Z,3.40
2022-09-04T12:40:30.476Z,2.90
2022-09-04T12:43:16.789Z,3.10
2022-09-04T12:46:37.898Z,3.20
2022-09-04T12:49:38.562Z,2.90
2022-09-04T12:52:28.436Z,3.10
2022-09-04T12:55:12.367Z,3.30
2022-09-04T12:57:55.883Z,3.30
2022-09-04T13:00:42.063Z,2.80
2022-09-04T13:03:40.468Z,2.90
2022-09-04T13:06:24.021Z,2.70
2022-09-04T13:09:14.659Z,2.30
2022-09-04T13:12:14.453Z,2.50
2022-09-04T13:15:13.797Z,2.90
2022-09-04T13:18:09.055Z,3.20
2022-09-04T13:20:43.677Z,3.00
2022-09-04T13:23:35.775Z,2.90
2022-09-04T13:26:08.787Z,2.90
2022-09-04T13:28:56.015Z,2.80
2022-09-04T13:31:46.847Z,3.10
2022-09-04T13:34:27.272Z,2.50
2022-09-04T13:36:55.878Z,3.00
2022-09-04T13:39:54.623Z,2.80
2022-09-04T13:42:29.269Z,3.50
2022-09-04T13:45:09.022Z,3.60
2022-09-04T13:47:50.394Z,7.30
2022-09-04T13:50:28.542Z,3.40
2022-09-04T13:53:03.160Z,3.00
2022-09-04T13:55:57.632Z,3.00
2022-09-04T13:58:38.876Z,3.10
2022-09-04T14:01:15.616Z,3.20
2022-09-04T14:03:52.206Z,3.40
2022-09-04T14:06:24.334Z,3.50
2022-09-04T14:09:05.644Z,2.90
2022-09-04T14:12:18.873Z,3.40
2022-09-04T14:15:15.172Z,2.70
2022-09-04T14:18:16.528Z,2.90
2022-09-04T14:21:19.961Z,2.70
2022-09-04T14:24:08.773Z,2.80
2022-09-04T14:26:56.030Z,2.80
2022-09-04T14:29:55.372Z,3.60
2022-09-04T14:32:50.248Z,2.70
2022-09-04T14:35:22.269Z,2.60
2022-09-04T14:38:14.705Z,2.70
2022-09-04T14:40:58.765Z,3.20
2022-09-04T14:43:48.856Z,3.40
2022-09-04T14:46:38.703Z,3.00
2022-09-04T14:49:12.153Z,3.40
2022-09-04T14:51:46.264Z,3.00
2022-09-04T14:54:25.105Z,2.90
2022-09-04T14:57:12.574Z,3.00
2022-09-04T14:59:52.285Z,2.90
2022-09-04T15:02:33.646Z,2.90
2022-09-04T15:05:17.267Z,3.40
2022-09-04T15:07:55.843Z,3.00
2022-09-04T15:10:31.865Z,3.30
2022-09-04T15:13:19.060Z,3.10
2022-09-04T15:15:54.720Z,3.10
2022-09-04T15:18:53.945Z,2.90
2022-09-04T15:21:50.029Z,2.90
2022-09-04T15:24:39.250Z,3.20
2022-09-04T15:27:32.519Z,3.70
2022-09-04T15:30:04.602Z,3.10
2022-09-04T15:32:42.159Z,3.00
2022-09-04T15:35:32.853Z,3.40
2022-09-04T15:38:28.459Z,3.50
2022-09-04T15:41:16.037Z,3.60
2022-09-04T15:43:52.511Z,3.70
2022-09-04T15:46:49.108Z,3.20
2022-09-04T15:49:27.904Z,3.20
2022-09-04T15:52:10.849Z,3.30
2022-09-04T15:54:42.089Z,3.60
2022-09-04T15:57:26.658Z,3.50
2022-09-04T16:00:02.937Z,3.60
2022-09-04T16:02:43.571Z,3.80
2022-09-04T16:05:28.478Z,4.10
2022-09-04T16:08:20.921Z,3.40
2022-09-04T16:11:16.346Z,3.70
2022-09-04T16:13:51.368Z,4.10
2022-09-04T16:16:57.049Z,3.70
2022-09-04T16:19:33.246Z,4.00
2022-09-04T16:22:11.266Z,4.30
2022-09-04T16:24:45.426Z,3.80
2022-09-04T16:27:21.369Z,3.70
2022-09-04T16:32:35.634Z,3.70
2022-09-04T16:35:36.559Z,3.60
2022-09-04T16:38:15.343Z,3.80
2022-09-04T16:40:56.972Z,3.50
2022-09-04T16:43:34.837Z,3.90
2022-09-04T16:46:27.790Z,3.90
2022-09-04T16:49:04.445Z,3.50
2022-09-04T16:51:50.446Z,3.90
2022-09-04T16:54:49.400Z,4.40
2022-09-04T16:57:29.366Z,4.10
2022-09-04T17:00:07.624Z,4.40
2022-09-04T17:03:01.268Z,4.60
2022-09-04T17:05:46.190Z,4.30
2022-09-04T17:08:43.649Z,4.30
2022-09-04T17:11:33.975Z,4.20
2022-09-04T17:14:23.162Z,4.10
2022-09-04T17:17:12.529Z,4.20
2022-09-04T17:20:12.972Z,3.90
2022-09-04T17:29:03.038Z,4.50
2022-09-04T17:29:22.444Z,4.80
2022-09-04T17:29:39.476Z,5.00
2022-09-04T17:37:47.501Z,4.80
2022-09-04T17:40:33.747Z,4.40
2022-09-04T17:40:53.759Z,4.50
2022-09-04T17:42:04.609Z,4.60
2022-09-04T17:45:08.881Z,4.50
2022-09-04T17:47:43.344Z,4.80
2022-09-04T17:50:14.249Z,5.30
2022-09-04T17:52:58.208Z,5.00
2022-09-04T17:57:56.906Z,5.70
2022-09-04T18:00:34.139Z,6.10
2022-09-04T18:03:45.977Z,5.10
2022-09-04T18:06:42.044Z,5.00
2022-09-04T18:09:26.615Z,5.10
2022-09-04T18:12:16.823Z,5.50
2022-09-04T18:15:27.647Z,4.90
2022-09-04T18:18:27.992Z,4.80
2022-09-04T18:21:08.870Z,4.60
2022-09-04T18:26:52.564Z,4.80
2022-09-04T18:32:55.715Z,4.70
2022-09-04T18:37:07.005Z,5.10
2022-09-04T18:37:24.549Z,5.10
2022-09-04T18:38:38.712Z,5.00
2022-09-04T18:49:49.764Z,5.20
2022-09-04T18:50:33.996Z,5.00
2022-09-04T18:50:47.271Z,5.70
2022-09-04T18:53:24.881Z,5.90
2022-09-04T18:56:03.788Z,6.00
2022-09-04T18:58:58.719Z,6.20
2022-09-04T19:01:38.925Z,6.90
2022-09-04T19:04:19.202Z,6.60
2022-09-04T19:07:07.006Z,6.60
2022-09-04T19:10:02.814Z,6.40
2022-09-04T19:12:54.280Z,6.90
2022-09-04T19:15:46.038Z,7.00
2022-09-04T19:18:56.324Z,6.90
2022-09-04T19:21:36.125Z,6.70
2022-09-04T19:24:20.844Z,6.30
2022-09-04T19:26:55.368Z,6.60
2022-09-04T19:29:30.221Z,5.90
2022-09-04T19:32:15.350Z,6.40
2022-09-04T19:35:02.707Z,6.50
2022-09-04T19:40:30.156Z,6.30
2022-09-04T19:46:04.938Z,5.90
2022-09-04T19:46:16.657Z,7.40
2022-09-04T19:47:28.935Z,6.20
2022-09-04T19:53:18.629Z,6.20
2022-09-04T19:53:38.989Z,6.00
2022-09-04T19:56:20.225Z,6.10
2022-09-04T19:59:04.089Z,6.10
2022-09-04T20:04:42.653Z,5.70
2022-09-04T20:07:21.285Z,5.90
2022-09-04T20:09:57.828Z,6.50
2022-09-04T20:12:29.444Z,6.00
2022-09-04T20:15:18.480Z,5.70
2022-09-04T20:18:12.091Z,5.90
2022-09-04T20:20:56.601Z,6.60
2022-09-04T20:23:46.860Z,6.90
2022-09-04T20:26:56.713Z,7.10
2022-09-04T20:29:37.666Z,6.10
2022-09-04T20:32:22.737Z,6.10
2022-09-04T20:35:13.826Z,5.80
2022-09-04T20:37:53.736Z,5.70
2022-09-04T20:40:31.823Z,5.60
2022-09-04T20:43:03.369Z,5.60
2022-09-04T20:51:01.851Z,5.90
2022-09-04T20:52:52.984Z,5.40
2022-09-04T20:52:57.196Z,5.50
2022-09-04T20:54:52.559Z,5.10
2022-09-04T21:02:53.312Z,5.50
2022-09-04T21:03:14.627Z,5.80
2022-09-04T21:03:56.425Z,5.10
2022-09-04T21:06:39.363Z,6.00
2022-09-04T21:09:26.823Z,5.70
2022-09-04T21:12:14.285Z,5.70
2022-09-04T21:14:52.896Z,5.40
2022-09-04T21:17:34.740Z,5.50
2022-09-04T21:20:04.374Z,5.40
2022-09-04T21:22:45.345Z,5.70
2022-09-04T21:25:18.382Z,5.10
2022-09-04T21:28:09.126Z,5.10
2022-09-04T21:30:50.335Z,5.30
2022-09-04T21:33:34.519Z,5.20
2022-09-04T21:36:26.570Z,5.10
2022-09-04T21:39:08.998Z,4.50
2022-09-04T21:41:59.849Z,4.70
2022-09-04T21:44:41.615Z,4.80
2022-09-04T21:47:13.371Z,4.70
2022-09-04T21:50:32.032Z,4.80
2022-09-04T21:53:32.062Z,4.60
2022-09-04T22:02:26.604Z,4.70
2022-09-04T22:02:45.678Z,4.20
2022-09-04T22:02:51.496Z,4.40
2022-09-04T22:05:46.388Z,4.90
2022-09-04T22:13:26.433Z,4.90
2022-09-04T22:13:43.729Z,4.50
2022-09-04T22:14:33.616Z,4.20
2022-09-04T22:18:04.154Z,4.20
2022-09-04T22:20:54.708Z,4.40
2022-09-04T22:23:42.719Z,4.30
2022-09-04T22:26:33.099Z,4.20
2022-09-04T22:29:01.883Z,4.30
2022-09-04T22:31:58.385Z,4.80
2022-09-04T22:34:45.229Z,4.40
2022-09-04T22:37:35.955Z,4.60
2022-09-04T22:40:26.260Z,4.80
2022-09-04T22:43:18.502Z,4.50
2022-09-04T22:46:35.774Z,4.60
2022-09-04T22:49:57.341Z,4.60
2022-09-04T22:52:32.548Z,4.80
2022-09-04T22:55:38.971Z,4.50
2022-09-04T22:58:38.648Z,4.80
2022-09-04T23:01:37.055Z,4.70
2022-09-04T23:04:39.744Z,4.50
2022-09-04T23:13:45.007Z,4.60
2022-09-04T23:13:56.459Z,4.50
2022-09-04T23:14:20.561Z,4.80
2022-09-04T23:16:58.578Z,4.80
2022-09-04T23:23:27.449Z,4.50
2022-09-04T23:26:42.858Z,4.60
2022-09-04T23:26:46.441Z,4.50
2022-09-04T23:29:21.481Z,4.20
2022-09-04T23:32:10.253Z,4.30
2022-09-04T23:35:27.133Z,4.50
2022-09-04T23:38:56.185Z,4.40
2022-09-04T23:42:14.067Z,4.40
2022-09-04T23:45:11.778Z,4.50
2022-09-04T23:48:16.372Z,4.80
2022-09-04T23:51:16.610Z,4.90
2022-09-04T23:54:39.962Z,4.60
2022-09-04T23:57:28.676Z,4.90
